Celebrity Infinity — 9HJD9 — position and weather

sailwx.info

Track history (hours):
 
Tides and Currents Weather Stations Pressure Air Temp Water Temp Dewpoint Dewpoint Depression Visibility Wind Speed Wind Dir Waves Ship Positions

Celebrity Infinity

Last reported at 2017-May-25 03:00 UTC. Time now 2017-May-25 03:14 UTC.
Position N 48°20' W 124°18'.

Length 294 m; draft 8.3 m.

Type: Ship. MMSI: 249048000.

Date/timePositionNaut miles runAvg speedWind from/ knotsBaromVisibWave heightAir tempDewpointWater temp
2017-May-25 03:00N 48°20' W 124°18'3 6.7
2017-May-25 02:30N 48°22' W 124°22'3 6.7
2017-May-25 02:00N 48°23' W 124°27'3 6.7
2017-May-25 01:30N 48°24' W 124°31'3 6.6
2017-May-25 01:00N 48°26' W 124°36'3 6.8
2017-May-25 00:30N 48°27' W 124°40'4 7.0
2017-May-25 00:00N 48°29' W 124°45'4 7.1
2017-May-24 23:30N 48°29' W 124°51'4 7.2
2017-May-24 23:00N 48°29' W 124°56'3 6.5
2017-May-24 22:30N 48°29' W 125°01'4 7.8
2017-May-24 22:00N 48°28' W 125°07'4344.1
2017-May-24 22:00N 48°24' W 125°06'611.8 300 / 281015.010.8 15.015.016.0
2017-May-24 21:30N 48°27' W 125°13'4 8.6
2017-May-24 21:00N 48°24' W 125°17'4 8.0
2017-May-24 20:30N 48°20' W 125°19'4 8.0
2017-May-24 19:59N 48°16' W 125°21'4 8.2
2017-May-24 19:30N 48°12' W 125°23'4 7.9
2017-May-24 18:57N 48°08' W 125°25'3 7.6
2017-May-24 18:30N 48°05' W 125°27'35 7.8
2017-May-24 14:00N 47°30' W 125°18'1312.7 290 / 351021.027.0 12.0 14.0
2017-May-24 13:00N 47°18' W 125°12'13 6.3 290 / 321020.027.0 12.0 15.0
2017-May-24 11:00N 47°06' W 125°06'6440.1 300 / 301020.0 5.4 15.015.014.0
2017-May-24 10:59N 47°10' W 125°11'4 7.6
2017-May-24 10:30N 47°07' W 125°10'4 7.4
2017-May-24 10:00N 47°03' W 125°08'4 7.6
2017-May-24 09:30N 47°00' W 125°05'4 7.7
2017-May-24 09:00N 46°57' W 125°02'4 7.4
2017-May-24 08:30N 46°54' W 124°58'4 7.5
2017-May-24 08:00N 46°51' W 124°55'4 7.5
2017-May-24 07:30N 46°48' W 124°52'4 7.5
2017-May-24 07:00N 46°45' W 124°49'3207.5
2017-May-24 07:00N 46°42' W 124°48'2 3.7 310 / 271017.0 24.0 22.0
2017-May-24 06:30N 46°42' W 124°45'4 7.6
2017-May-24 06:00N 46°39' W 124°42'4 7.7
2017-May-24 05:30N 46°36' W 124°38'4 7.2
2017-May-24 05:00N 46°33' W 124°36'4 7.1
2017-May-24 04:30N 46°30' W 124°33'3 7.0
2017-May-24 04:00N 46°27' W 124°30'3 7.0
2017-May-24 03:30N 46°24' W 124°28'4 7.1
2017-May-24 03:00N 46°21' W 124°25'3 6.9
2017-May-24 02:30N 46°18' W 124°21'3 6.8
2017-May-24 02:00N 46°16' W 124°18'4 7.3
2017-May-24 01:30N 46°13' W 124°15'4 7.0
2017-May-24 01:00N 46°10' W 124°12'510.2
2017-May-24 00:31N 46°14' W 124°07'611.6
2017-May-24 00:01N 46°14' W 123°59'5 9.6
2017-May-23 23:30N 46°12' W 123°52'1 1.2
2017-May-23 22:58N 46°11' W 123°51'0 0.0
2017-May-23 22:28N 46°11' W 123°51'612.7
2017-May-23 22:00N 46°06' W 123°48'6166.1 360 / 141020.0 5.4 15.015.014.0
2017-May-23 21:57N 46°11' W 123°51'0 0.0
2017-May-23 21:24N 46°11' W 123°51'0 0.0
2017-May-23 21:00N 46°11' W 123°51'0 0.0
2017-May-23 20:30N 46°11' W 123°51'0 0.0
2017-May-23 20:00N 46°11' W 123°51'0 0.0
2017-May-23 19:29N 46°11' W 123°51'0 0.0
2017-May-23 18:59N 46°11' W 123°51'0 0.0
2017-May-23 18:29N 46°11' W 123°51'0 0.0
2017-May-23 17:59N 46°11' W 123°51'0 0.0
2017-May-23 17:28N 46°11' W 123°51'0 0.0
2017-May-23 16:58N 46°11' W 123°51'0 0.0
2017-May-23 16:28N 46°11' W 123°51'0 0.0
2017-May-23 15:58N 46°11' W 123°51'0 0.0
2017-May-23 15:28N 46°11' W 123°51'0 0.0
2017-May-23 15:00N 46°11' W 123°51'0 0.0
2017-May-23 14:30N 46°11' W 123°51'5 4.6
2017-May-23 13:31N 46°13' W 123°58'510.5
2017-May-23 13:00N 46°15' W 124°04'612.7
2017-May-23 12:31N 46°10' W 124°10'612.8
2017-May-23 12:00N 46°04' W 124°11'815.2
2017-May-23 11:30N 45°56' W 124°12'816.4
2017-May-23 11:00N 45°48' W 124°13'816.4
2017-May-23 10:30N 45°40' W 124°14'816.3
2017-May-23 10:00N 45°32' W 124°15'5289.1
2017-May-23 10:00N 45°36' W 124°12'1225.7 360 / 301017.0 5.4 14.014.014.0
2017-May-23 09:30N 45°24' W 124°16'816.2
2017-May-23 09:00N 45°16' W 124°18'4243.8
2017-May-23 09:00N 45°12' W 124°18'4 8.7 360 / 221017.0 5.4 14.014.017.0
2017-May-23 08:30N 45°08' W 124°19'1325.4
2017-May-23 08:01N 44°55' W 124°22'4 7.2
2017-May-23 07:30N 44°52' W 124°23'816.2
2017-May-23 07:00N 44°44' W 124°25'8505.3
2017-May-23 07:00N 44°36' W 124°24'2 4.3 320 / 251012.0 16.0 12.0
2017-May-23 06:30N 44°36' W 124°27'816.5
2017-May-23 06:00N 44°28' W 124°29'816.6
2017-May-23 05:30N 44°19' W 124°30'816.5
2017-May-23 05:00N 44°11' W 124°31'816.7
2017-May-23 04:30N 44°03' W 124°33'816.9
2017-May-23 04:00N 43°55' W 124°34'816.5
2017-May-23 03:30N 43°46' W 124°35'816.5
2017-May-23 03:01N 43°38' W 124°37'816.2
2017-May-23 02:30N 43°30' W 124°39'1224.0
2017-May-23 02:00N 43°18' W 124°36'54072.6 360 / 281018.027.0 22.0 19.0
2017-May-23 01:59N 43°22' W 124°39'1216.6
2017-May-23 01:14N 43°09' W 124°41'416.2
2017-May-23 01:00N 43°06' W 124°42'6449.3
2017-May-23 01:00N 43°00' W 124°42'3 5.7 360 / 281017.027.0 25.0 22.0
2017-May-23 00:30N 42°57' W 124°44'1216.6
2017-May-22 23:47N 42°46' W 124°45'415.8
2017-May-22 23:30N 42°41' W 124°46'815.7
2017-May-22 23:00N 42°33' W 124°47'10647.6
2017-May-22 23:00N 42°24' W 124°42'13915.4 360 / 141015.0 5.4 15.015.016.0
2017-May-22 14:00N 40°06' W 124°24'1312.9 350 / 221016.0 19.0 15.0
2017-May-22 13:00N 39°54' W 124°18'4422.1 350 / 201015.0 0.5 18.0 20.0
2017-May-22 11:00N 39°12' W 124°00'2311.4 360 / 25 10.8 26.026.015.0
2017-May-22 09:00N 38°50' W 123°50'4422.8
2017-May-22 09:00N 38°54' W 123°54'1326.1 320 / 251014.0 0.5 14.014.015.0
2017-May-22 08:31N 38°43' W 123°45'816.5
2017-May-22 08:00N 38°36' W 123°40'816.3
2017-May-22 07:30N 38°29' W 123°35'816.2
2017-May-22 07:01N 38°22' W 123°30'816.4
2017-May-22 06:30N 38°15' W 123°25'611.9
2017-May-22 06:00N 38°10' W 123°21'5 9.2
2017-May-22 05:30N 38°06' W 123°17'5 9.5
2017-May-22 05:00N 38°03' W 123°13'5 9.5
2017-May-22 04:30N 37°59' W 123°09'5 9.6
2017-May-22 04:00N 37°57' W 123°04'5 9.6
2017-May-22 03:30N 37°54' W 122°59'5 9.6
2017-May-22 03:00N 37°52' W 122°54'5 9.5
2017-May-22 02:30N 37°49' W 122°48'5 9.8
2017-May-22 02:00N 37°47' W 122°43'4 8.4
2017-May-22 01:30N 37°46' W 122°38'611.2
2017-May-22 01:00N 37°48' W 122°31'511.0
2017-May-22 00:30N 37°49' W 122°24'1 1.3
2017-May-22 00:00N 37°48' W 122°24'0 0.0
2017-May-21 23:28N 37°48' W 122°24'0 0.0
2017-May-21 22:58N 37°48' W 122°24'0 0.0
2017-May-21 22:28N 37°48' W 122°24'0 0.0
2017-May-21 21:58N 37°48' W 122°24'0 0.0
2017-May-21 21:28N 37°48' W 122°24'0 0.0
2017-May-21 20:59N 37°48' W 122°24'0 0.0
2017-May-21 20:29N 37°48' W 122°24'0 0.0
2017-May-21 19:59N 37°48' W 122°24'0 0.0
2017-May-21 19:29N 37°48' W 122°24'0 0.6
2017-May-21 19:00N 37°48' W 122°24'014.9 280 / 81009.0 25.0 22.0
2017-May-21 18:58N 37°48' W 122°24'0 0.0
2017-May-21 18:28N 37°48' W 122°24'0 0.0
2017-May-21 17:58N 37°48' W 122°24'0 0.0
2017-May-21 17:28N 37°48' W 122°24'0 0.0
2017-May-21 17:01N 37°48' W 122°24'0 0.0
2017-May-21 16:30N 37°48' W 122°24'0 0.0
2017-May-21 16:00N 37°48' W 122°24'0 0.0
2017-May-21 15:30N 37°48' W 122°24'0 0.0
2017-May-21 15:00N 37°48' W 122°24'0 0.0
2017-May-21 14:29N 37°48' W 122°24'0 0.0
2017-May-21 13:29N 37°48' W 122°24'0 0.0
2017-May-21 12:59N 37°48' W 122°24'0 0.0
2017-May-21 12:29N 37°48' W 122°24'0 0.0
2017-May-21 11:58N 37°48' W 122°24'0 0.0
2017-May-21 11:28N 37°48' W 122°24'0 0.0
2017-May-21 10:58N 37°48' W 122°24'0 0.0
2017-May-21 10:28N 37°48' W 122°24'0 0.0
2017-May-21 10:00N 37°48' W 122°24'0 0.0
2017-May-21 09:30N 37°48' W 122°24'0 0.0
2017-May-21 09:00N 37°48' W 122°24'0 0.0
2017-May-21 08:30N 37°48' W 122°24'0 0.0
2017-May-21 08:00N 37°48' W 122°24'0 0.0
2017-May-21 07:29N 37°48' W 122°24'0 0.0
2017-May-21 06:59N 37°48' W 122°24'0 0.0
2017-May-21 06:29N 37°48' W 122°24'0 0.0
2017-May-21 05:59N 37°48' W 122°24'0 0.0
2017-May-21 05:28N 37°48' W 122°24'0 0.0
2017-May-21 05:00N 37°48' W 122°24'0 0.0
2017-May-21 04:28N 37°48' W 122°24'0 0.0
2017-May-21 03:58N 37°48' W 122°24'0 0.0
2017-May-21 03:28N 37°48' W 122°24'0 0.0
2017-May-21 02:58N 37°48' W 122°24'0 0.0
2017-May-21 02:29N 37°48' W 122°24'0 0.0
2017-May-21 01:58N 37°48' W 122°24'0 0.0
2017-May-21 01:28N 37°48' W 122°24'0 0.0
2017-May-21 00:58N 37°48' W 122°24'0 0.0
2017-May-21 00:28N 37°48' W 122°24'0 0.0
2017-May-21 00:00N 37°48' W 122°24'0 0.0
2017-May-20 23:30N 37°48' W 122°24'0 0.0
2017-May-20 23:00N 37°48' W 122°24'0 0.0
2017-May-20 22:30N 37°48' W 122°24'0 0.0
2017-May-20 22:00N 37°48' W 122°24'0 0.0
2017-May-20 21:29N 37°48' W 122°24'0 0.0
2017-May-20 20:59N 37°48' W 122°24'0 0.0
2017-May-20 20:29N 37°48' W 122°24'0 0.0
2017-May-20 19:59N 37°48' W 122°24'0 0.0
2017-May-20 19:28N 37°48' W 122°24'0 0.0
2017-May-20 18:58N 37°48' W 122°24'0 0.0
2017-May-20 18:28N 37°48' W 122°24'0 0.6
2017-May-20 18:00N 37°48' W 122°24'010.4 260 / 61011.0 25.0 22.0
2017-May-20 17:58N 37°48' W 122°24'0 0.0
2017-May-20 17:28N 37°48' W 122°24'0 0.0
2017-May-20 17:00N 37°48' W 122°24'0 0.0
2017-May-20 16:30N 37°48' W 122°24'0 0.0
2017-May-20 16:00N 37°48' W 122°24'0 0.0
2017-May-20 15:30N 37°48' W 122°24'0 0.0
2017-May-20 15:00N 37°48' W 122°24'0 0.0
2017-May-20 14:29N 37°48' W 122°24'0 0.3
2017-May-20 13:30N 37°49' W 122°24'2 3.9
2017-May-20 13:00N 37°49' W 122°26'510.6
2017-May-20 12:30N 37°47' W 122°33'612.3
2017-May-20 12:00N 37°45' W 122°40'5 9.8
2017-May-20 11:30N 37°42' W 122°45'5 9.6
2017-May-20 11:00N 37°39' W 122°50'5 9.8
2017-May-20 10:30N 37°37' W 122°55'5 9.7
2017-May-20 10:01N 37°34' W 123°00'6365.7
2017-May-20 10:00N 37°30' W 122°54'918.4 270 / 121015.0 5.4 16.016.017.0
2017-May-20 09:30N 37°31' W 123°05'510.0
2017-May-20 09:00N 37°27' W 123°09'4302.8
2017-May-20 09:00N 37°24' W 123°06'3 6.1 280 / 121015.0 5.4 17.017.017.0
2017-May-20 08:30N 37°23' W 123°09'4 8.9
2017-May-20 08:00N 37°18' W 123°09'510.3
2017-May-20 07:30N 37°13' W 123°09'611.1
2017-May-20 07:00N 37°07' W 123°09'511.0
2017-May-20 06:30N 37°03' W 123°05'611.2
2017-May-20 06:00N 36°59' W 122°60'5301.0
2017-May-20 06:00N 36°54' W 123°00'4 8.2 320 / 191012.0 25.0 22.0
2017-May-20 05:30N 36°55' W 122°55'611.5
2017-May-20 05:00N 36°50' W 122°50'611.5
2017-May-20 04:30N 36°47' W 122°44'611.4
2017-May-20 04:00N 36°44' W 122°38'510.9
2017-May-20 03:30N 36°41' W 122°32'611.3
2017-May-20 03:00N 36°41' W 122°25'611.3
2017-May-20 02:30N 36°41' W 122°18'611.2
2017-May-20 02:00N 36°40' W 122°11'611.5
2017-May-20 01:30N 36°40' W 122°04'611.7
2017-May-20 01:00N 36°40' W 121°57'4 8.6
2017-May-20 00:30N 36°37' W 121°53'0 0.2
2017-May-19 23:55N 36°37' W 121°53'0 0.1
2017-May-19 23:16N 36°37' W 121°53'0 0.0
2017-May-19 22:58N 36°37' W 121°53'0 0.0
2017-May-19 22:28N 36°37' W 121°53'0 0.0
2017-May-19 21:58N 36°37' W 121°53'0 0.0
2017-May-19 21:30N 36°37' W 121°53'4 8.0
2017-May-19 21:00N 36°36' W 121°48'4107.7 270 / 201016.0 5.4 18.018.017.0
2017-May-19 20:57N 36°37' W 121°53'0 0.1
2017-May-19 20:27N 36°37' W 121°53'0 0.1
2017-May-19 20:00N 36°37' W 121°53'0 0.1
2017-May-19 19:17N 36°37' W 121°53'0 0.1
2017-May-19 18:59N 36°37' W 121°53'0 0.0
2017-May-19 18:29N 36°37' W 121°53'0 0.0
2017-May-19 17:56N 36°37' W 121°53'0 0.1
2017-May-19 17:29N 36°37' W 121°53'0 0.0
2017-May-19 16:55N 36°37' W 121°53'0 0.0
2017-May-19 16:25N 36°37' W 121°53'0 0.0
2017-May-19 15:46N 36°37' W 121°53'0 0.0
2017-May-19 15:22N 36°37' W 121°53'0 0.0
2017-May-19 14:55N 36°37' W 121°53'0 0.2
2017-May-19 14:00N 36°37' W 121°53'4 8.1
2017-May-19 13:30N 36°40' W 121°57'713.6
2017-May-19 13:00N 36°35' W 122°03'816.0
2017-May-19 12:30N 36°27' W 122°02'816.2
2017-May-19 12:00N 36°19' W 122°02'815.9
2017-May-19 11:30N 36°11' W 122°02'816.0
2017-May-19 11:00N 36°03' W 122°01'9600.6
2017-May-19 11:00N 35°54' W 122°00'2 4.0 300 / 231014.0 5.4 17.017.017.0
2017-May-19 10:30N 35°55' W 121°58'815.2
2017-May-19 10:00N 35°49' W 121°54'8555.7
2017-May-19 10:00N 35°42' W 121°48'1 1.4 300 / 221015.0 5.4 16.016.015.0
2017-May-19 09:30N 35°42' W 121°49'815.8
2017-May-19 09:00N 35°35' W 121°44'816.5
2017-May-19 08:30N 35°28' W 121°39'815.6
2017-May-19 08:00N 35°22' W 121°34'816.1
2017-May-19 07:30N 35°15' W 121°29'815.5
2017-May-19 07:00N 35°08' W 121°24'9608.4
2017-May-19 07:00N 35°00' W 121°18'1 2.8 240 / 241008.0 25.0 22.0
2017-May-19 06:30N 35°01' W 121°19'816.0
2017-May-19 06:00N 34°54' W 121°14'815.9
2017-May-19 05:30N 34°48' W 121°08'815.9
2017-May-19 05:00N 34°41' W 121°03'816.0
2017-May-19 04:30N 34°34' W 120°58'816.3
2017-May-19 04:00N 34°27' W 120°53'815.6
2017-May-19 03:30N 34°24' W 120°44'816.1
2017-May-19 03:00N 34°22' W 120°35'816.2
2017-May-19 02:30N 34°20' W 120°25'816.3
2017-May-19 01:59N 34°18' W 120°15'714.9
2017-May-19 01:30N 34°19' W 120°06'815.9
2017-May-19 01:00N 34°20' W 119°57'816.2
2017-May-19 00:31N 34°22' W 119°47'611.0
2017-May-19 00:00N 34°24' W 119°41'0 0.3
2017-May-18 23:30N 34°24' W 119°41'0 0.0
2017-May-18 22:57N 34°24' W 119°41'0 0.0
2017-May-18 20:59N 34°24' W 119°41'7 2.4
2017-May-18 18:00N 34°18' W 119°36'714.6 230 / 91009.0 24.0 22.0
2017-May-18 17:30N 34°24' W 119°41'0 0.0
2017-May-18 13:59N 34°24' W 119°41'0 0.2
2017-May-18 13:30N 34°24' W 119°41'1 1.1
2017-May-18 13:00N 34°23' W 119°41'611.3
2017-May-18 12:30N 34°18' W 119°39'713.4
2017-May-18 11:59N 34°12' W 119°34'714.2
2017-May-18 11:30N 34°08' W 119°27'914.4
2017-May-18 10:51N 34°05' W 119°17'714.3
2017-May-18 10:20N 34°01' W 119°09'3 7.9
2017-May-18 10:00N 34°00' W 119°06'341.4 090 / 131011.0 5.4 17.017.017.0
2017-May-18 09:55N 33°58' W 119°02'614.2
2017-May-18 09:30N 33°55' W 118°56'1427.8
2017-May-18 09:00N 33°48' W 118°42'7777.3 050 / 81013.0 5.4 17.017.019.0
2017-May-18 08:59N 33°52' W 118°49'714.7
2017-May-18 08:30N 33°48' W 118°41'714.4
2017-May-18 08:00N 33°45' W 118°34'714.4
2017-May-18 07:30N 33°41' W 118°26'713.1
2017-May-18 07:00N 33°38' W 118°19'611.9
2017-May-18 06:30N 33°38' W 118°12'611.8
2017-May-18 06:00N 33°33' W 118°09'815.1
2017-May-18 05:30N 33°26' W 118°06'815.3
2017-May-18 05:00N 33°19' W 118°02'815.6
2017-May-18 04:30N 33°13' W 117°57'815.2
2017-May-18 04:00N 33°06' W 117°51'814.9
2017-May-18 03:30N 33°00' W 117°46'815.1
2017-May-18 03:00N 32°54' W 117°42'714.9
2017-May-18 02:30N 32°48' W 117°37'714.7
2017-May-18 02:01N 32°42' W 117°31'714.7
2017-May-18 01:31N 32°39' W 117°23'714.7
2017-May-18 01:01N 32°37' W 117°14'611.6
2017-May-18 00:30N 32°43' W 117°13'3 5.2
2017-May-18 00:00N 32°43' W 117°10'0 0.0
2017-May-17 23:24N 32°43' W 117°10'0 0.0
2017-May-17 22:54N 32°43' W 117°10'0 0.0
2017-May-17 22:27N 32°43' W 117°10'0 0.0
2017-May-17 22:00N 32°43' W 117°10'0 0.0
2017-May-17 21:24N 32°43' W 117°10'0 0.0
2017-May-17 20:50N 32°43' W 117°10'0 0.0
2017-May-17 20:14N 32°43' W 117°10'0 0.0
2017-May-17 19:59N 32°43' W 117°10'0 0.0
2017-May-17 19:26N 32°43' W 117°10'4 8.9
2017-May-17 19:00N 32°42' W 117°06'4245.8 270 / 81011.0 27.0 24.0
2017-May-17 18:59N 32°43' W 117°10'0 0.0
2017-May-17 18:25N 32°43' W 117°10'0 0.0
2017-May-17 17:55N 32°43' W 117°10'0 0.0
2017-May-17 17:07N 32°43' W 117°10'0 0.0
2017-May-17 16:55N 32°43' W 117°10'0 0.0
2017-May-17 16:12N 32°43' W 117°10'0 0.0
2017-May-17 15:42N 32°43' W 117°10'0 0.0
2017-May-17 15:30N 32°43' W 117°10'0 0.0
2017-May-17 15:00N 32°43' W 117°10'0 0.0
2017-May-17 14:30N 32°43' W 117°10'0 0.0
2017-May-17 13:23N 32°43' W 117°10'0 0.1
2017-May-17 13:01N 32°43' W 117°10'3 5.7
2017-May-17 12:30N 32°42' W 117°14'510.1
2017-May-17 12:00N 32°37' W 117°14'510.8
2017-May-17 11:31N 32°32' W 117°17'1121.2
2017-May-17 11:00N 32°23' W 117°22'1020.6
2017-May-17 10:30N 32°13' W 117°18'1427.2
2017-May-17 10:00N 32°00' W 117°12'3215.8 270 / 91015.0 5.4 26.026.018.0
2017-May-17 08:00N 31°30' W 117°00'3737.4 300 / 201016.0 5.4 17.017.016.0
2017-May-17 07:00N 30°54' W 116°48'8817.6 330 / 241014.0 25.0 22.0
2017-May-17 02:00N 29°30' W 116°18'6421.2 290 / 301018.027.0 20.0 18.0
2017-May-16 23:00N 28°30' W 115°54'3818.8 300 / 251017.0 5.4 18.018.017.0
2017-May-16 21:00N 27°54' W 115°42'7218.0 300 / 281019.0 5.4 18.018.018.0
2017-May-16 17:00N 27°00' W 114°48'6120.3 310 / 201019.0 5.4 26.026.023.0
2017-May-16 14:00N 26°12' W 114°06'4020.2 290 / 251016.027.0 27.0 23.0
2017-May-16 12:00N 25°42' W 113°36'4020.2 290 / 221016.027.0 26.0 23.0
2017-May-16 10:00N 25°12' W 113°06'7719.2 300 / 301016.0 5.4 26.026.024.0
2017-May-16 06:00N 24°18' W 112°06'8617.2 310 / 221012.0 26.0 23.0
2017-May-16 01:00N 23°30' W 110°48'4522.3 280 / 221014.027.0 27.0 23.0
2017-May-15 23:00N 23°00' W 110°12'76 5.4 280 / 201014.027.0 27.0 23.0
2017-May-15 09:00N 22°24' W 109°00'5417.9 260 / 231009.0 5.4 27.027.026.0
2017-May-15 06:00N 21°54' W 108°12'2525.3 270 / 231016.0 5.4 23.023.025.0
2017-May-15 05:00N 21°42' W 107°48'   260 / 171009.0 26.0 25.0
Track history (hours):
 
Tides and Currents Weather Stations Pressure Air Temp Water Temp Dewpoint Dewpoint Depression Visibility Wind Speed Wind Dir Waves Ship Positions

Celebrity Infinity

Last reported at 2017-May-25 03:00 UTC. Time now 2017-May-25 03:14 UTC.
Position N 48°20' W 124°18'.

Length 294 m; draft 8.3 m.

Type: Ship. MMSI: 249048000.

Date/timePositionNaut miles runAvg speedWind from/ knotsBaromVisibWave heightAir tempDewpointWater temp
2017-May-25 03:00N 48°20' W 124°18'3 6.7
2017-May-25 02:30N 48°22' W 124°22'3 6.7
2017-May-25 02:00N 48°23' W 124°27'3 6.7
2017-May-25 01:30N 48°24' W 124°31'3 6.6
2017-May-25 01:00N 48°26' W 124°36'3 6.8
2017-May-25 00:30N 48°27' W 124°40'4 7.0
2017-May-25 00:00N 48°29' W 124°45'4 7.1
2017-May-24 23:30N 48°29' W 124°51'4 7.2
2017-May-24 23:00N 48°29' W 124°56'3 6.5
2017-May-24 22:30N 48°29' W 125°01'4 7.8
2017-May-24 22:00N 48°28' W 125°07'4344.1
2017-May-24 22:00N 48°24' W 125°06'611.8 300 / 281015.010.8 15.015.016.0
2017-May-24 21:30N 48°27' W 125°13'4 8.6
2017-May-24 21:00N 48°24' W 125°17'4 8.0
2017-May-24 20:30N 48°20' W 125°19'4 8.0
2017-May-24 19:59N 48°16' W 125°21'4 8.2
2017-May-24 19:30N 48°12' W 125°23'4 7.9
2017-May-24 18:57N 48°08' W 125°25'3 7.6
2017-May-24 18:30N 48°05' W 125°27'35 7.8
2017-May-24 14:00N 47°30' W 125°18'1312.7 290 / 351021.027.0 12.0 14.0
2017-May-24 13:00N 47°18' W 125°12'13 6.3 290 / 321020.027.0 12.0 15.0
2017-May-24 11:00N 47°06' W 125°06'6440.1 300 / 301020.0 5.4 15.015.014.0
2017-May-24 10:59N 47°10' W 125°11'4 7.6
2017-May-24 10:30N 47°07' W 125°10'4 7.4
2017-May-24 10:00N 47°03' W 125°08'4 7.6
2017-May-24 09:30N 47°00' W 125°05'4 7.7
2017-May-24 09:00N 46°57' W 125°02'4 7.4
2017-May-24 08:30N 46°54' W 124°58'4 7.5
2017-May-24 08:00N 46°51' W 124°55'4 7.5
2017-May-24 07:30N 46°48' W 124°52'4 7.5
2017-May-24 07:00N 46°45' W 124°49'3207.5
2017-May-24 07:00N 46°42' W 124°48'2 3.7 310 / 271017.0 24.0 22.0
2017-May-24 06:30N 46°42' W 124°45'4 7.6
2017-May-24 06:00N 46°39' W 124°42'4 7.7
2017-May-24 05:30N 46°36' W 124°38'4 7.2
2017-May-24 05:00N 46°33' W 124°36'4 7.1
2017-May-24 04:30N 46°30' W 124°33'3 7.0
2017-May-24 04:00N 46°27' W 124°30'3 7.0
2017-May-24 03:30N 46°24' W 124°28'4 7.1
2017-May-24 03:00N 46°21' W 124°25'3 6.9
2017-May-24 02:30N 46°18' W 124°21'3 6.8
2017-May-24 02:00N 46°16' W 124°18'4 7.3
2017-May-24 01:30N 46°13' W 124°15'4 7.0
2017-May-24 01:00N 46°10' W 124°12'510.2
2017-May-24 00:31N 46°14' W 124°07'611.6
2017-May-24 00:01N 46°14' W 123°59'5 9.6
2017-May-23 23:30N 46°12' W 123°52'1 1.2
2017-May-23 22:58N 46°11' W 123°51'0 0.0
2017-May-23 22:28N 46°11' W 123°51'612.7
2017-May-23 22:00N 46°06' W 123°48'6166.1 360 / 141020.0 5.4 15.015.014.0
2017-May-23 21:57N 46°11' W 123°51'0 0.0
2017-May-23 21:24N 46°11' W 123°51'0 0.0
2017-May-23 21:00N 46°11' W 123°51'0 0.0
2017-May-23 20:30N 46°11' W 123°51'0 0.0
2017-May-23 20:00N 46°11' W 123°51'0 0.0
2017-May-23 19:29N 46°11' W 123°51'0 0.0
2017-May-23 18:59N 46°11' W 123°51'0 0.0
2017-May-23 18:29N 46°11' W 123°51'0 0.0
2017-May-23 17:59N 46°11' W 123°51'0 0.0
2017-May-23 17:28N 46°11' W 123°51'0 0.0
2017-May-23 16:58N 46°11' W 123°51'0 0.0
2017-May-23 16:28N 46°11' W 123°51'0 0.0
2017-May-23 15:58N 46°11' W 123°51'0 0.0
2017-May-23 15:28N 46°11' W 123°51'0 0.0
2017-May-23 15:00N 46°11' W 123°51'0 0.0
2017-May-23 14:30N 46°11' W 123°51'5 4.6
2017-May-23 13:31N 46°13' W 123°58'510.5
2017-May-23 13:00N 46°15' W 124°04'612.7
2017-May-23 12:31N 46°10' W 124°10'612.8
2017-May-23 12:00N 46°04' W 124°11'815.2
2017-May-23 11:30N 45°56' W 124°12'816.4
2017-May-23 11:00N 45°48' W 124°13'816.4
2017-May-23 10:30N 45°40' W 124°14'816.3
2017-May-23 10:00N 45°32' W 124°15'5289.1
2017-May-23 10:00N 45°36' W 124°12'1225.7 360 / 301017.0 5.4 14.014.014.0
2017-May-23 09:30N 45°24' W 124°16'816.2
2017-May-23 09:00N 45°16' W 124°18'4243.8
2017-May-23 09:00N 45°12' W 124°18'4 8.7 360 / 221017.0 5.4 14.014.017.0
2017-May-23 08:30N 45°08' W 124°19'1325.4
2017-May-23 08:01N 44°55' W 124°22'4 7.2
2017-May-23 07:30N 44°52' W 124°23'816.2
2017-May-23 07:00N 44°44' W 124°25'8505.3
2017-May-23 07:00N 44°36' W 124°24'2 4.3 320 / 251012.0 16.0 12.0
2017-May-23 06:30N 44°36' W 124°27'816.5
2017-May-23 06:00N 44°28' W 124°29'816.6
2017-May-23 05:30N 44°19' W 124°30'816.5
2017-May-23 05:00N 44°11' W 124°31'816.7
2017-May-23 04:30N 44°03' W 124°33'816.9
2017-May-23 04:00N 43°55' W 124°34'816.5
2017-May-23 03:30N 43°46' W 124°35'816.5
2017-May-23 03:01N 43°38' W 124°37'816.2
2017-May-23 02:30N 43°30' W 124°39'1224.0
2017-May-23 02:00N 43°18' W 124°36'54072.6 360 / 281018.027.0 22.0 19.0
2017-May-23 01:59N 43°22' W 124°39'1216.6
2017-May-23 01:14N 43°09' W 124°41'416.2
2017-May-23 01:00N 43°06' W 124°42'6449.3
2017-May-23 01:00N 43°00' W 124°42'3 5.7 360 / 281017.027.0 25.0 22.0
2017-May-23 00:30N 42°57' W 124°44'1216.6
2017-May-22 23:47N 42°46' W 124°45'415.8
2017-May-22 23:30N 42°41' W 124°46'815.7
2017-May-22 23:00N 42°33' W 124°47'10647.6
2017-May-22 23:00N 42°24' W 124°42'13915.4 360 / 141015.0 5.4 15.015.016.0
2017-May-22 14:00N 40°06' W 124°24'1312.9 350 / 221016.0 19.0 15.0
2017-May-22 13:00N 39°54' W 124°18'4422.1 350 / 201015.0 0.5 18.0 20.0
2017-May-22 11:00N 39°12' W 124°00'2311.4 360 / 25 10.8 26.026.015.0
2017-May-22 09:00N 38°50' W 123°50'4422.8
2017-May-22 09:00N 38°54' W 123°54'1326.1 320 / 251014.0 0.5 14.014.015.0
2017-May-22 08:31N 38°43' W 123°45'816.5
2017-May-22 08:00N 38°36' W 123°40'816.3
2017-May-22 07:30N 38°29' W 123°35'816.2
2017-May-22 07:01N 38°22' W 123°30'816.4
2017-May-22 06:30N 38°15' W 123°25'611.9
2017-May-22 06:00N 38°10' W 123°21'5 9.2
2017-May-22 05:30N 38°06' W 123°17'5 9.5
2017-May-22 05:00N 38°03' W 123°13'5 9.5
2017-May-22 04:30N 37°59' W 123°09'5 9.6
2017-May-22 04:00N 37°57' W 123°04'5 9.6
2017-May-22 03:30N 37°54' W 122°59'5 9.6
2017-May-22 03:00N 37°52' W 122°54'5 9.5
2017-May-22 02:30N 37°49' W 122°48'5 9.8
2017-May-22 02:00N 37°47' W 122°43'4 8.4
2017-May-22 01:30N 37°46' W 122°38'611.2
2017-May-22 01:00N 37°48' W 122°31'511.0
2017-May-22 00:30N 37°49' W 122°24'1 1.3
2017-May-22 00:00N 37°48' W 122°24'0 0.0
2017-May-21 23:28N 37°48' W 122°24'0 0.0
2017-May-21 22:58N 37°48' W 122°24'0 0.0
2017-May-21 22:28N 37°48' W 122°24'0 0.0
2017-May-21 21:58N 37°48' W 122°24'0 0.0
2017-May-21 21:28N 37°48' W 122°24'0 0.0
2017-May-21 20:59N 37°48' W 122°24'0 0.0
2017-May-21 20:29N 37°48' W 122°24'0 0.0
2017-May-21 19:59N 37°48' W 122°24'0 0.0
2017-May-21 19:29N 37°48' W 122°24'0 0.6
2017-May-21 19:00N 37°48' W 122°24'014.9 280 / 81009.0 25.0 22.0
2017-May-21 18:58N 37°48' W 122°24'0 0.0
2017-May-21 18:28N 37°48' W 122°24'0 0.0
2017-May-21 17:58N 37°48' W 122°24'0 0.0
2017-May-21 17:28N 37°48' W 122°24'0 0.0
2017-May-21 17:01N 37°48' W 122°24'0 0.0
2017-May-21 16:30N 37°48' W 122°24'0 0.0
2017-May-21 16:00N 37°48' W 122°24'0 0.0
2017-May-21 15:30N 37°48' W 122°24'0 0.0
2017-May-21 15:00N 37°48' W 122°24'0 0.0
2017-May-21 14:29N 37°48' W 122°24'0 0.0
2017-May-21 13:29N 37°48' W 122°24'0 0.0
2017-May-21 12:59N 37°48' W 122°24'0 0.0
2017-May-21 12:29N 37°48' W 122°24'0 0.0
2017-May-21 11:58N 37°48' W 122°24'0 0.0
2017-May-21 11:28N 37°48' W 122°24'0 0.0
2017-May-21 10:58N 37°48' W 122°24'0 0.0
2017-May-21 10:28N 37°48' W 122°24'0 0.0
2017-May-21 10:00N 37°48' W 122°24'0 0.0
2017-May-21 09:30N 37°48' W 122°24'0 0.0
2017-May-21 09:00N 37°48' W 122°24'0 0.0
2017-May-21 08:30N 37°48' W 122°24'0 0.0
2017-May-21 08:00N 37°48' W 122°24'0 0.0
2017-May-21 07:29N 37°48' W 122°24'0 0.0
2017-May-21 06:59N 37°48' W 122°24'0 0.0
2017-May-21 06:29N 37°48' W 122°24'0 0.0
2017-May-21 05:59N 37°48' W 122°24'0 0.0
2017-May-21 05:28N 37°48' W 122°24'0 0.0
2017-May-21 05:00N 37°48' W 122°24'0 0.0
2017-May-21 04:28N 37°48' W 122°24'0 0.0
2017-May-21 03:58N 37°48' W 122°24'0 0.0
2017-May-21 03:28N 37°48' W 122°24'0 0.0
2017-May-21 02:58N 37°48' W 122°24'0 0.0
2017-May-21 02:29N 37°48' W 122°24'0 0.0
2017-May-21 01:58N 37°48' W 122°24'0 0.0
2017-May-21 01:28N 37°48' W 122°24'0 0.0
2017-May-21 00:58N 37°48' W 122°24'0 0.0
2017-May-21 00:28N 37°48' W 122°24'0 0.0
2017-May-21 00:00N 37°48' W 122°24'0 0.0
2017-May-20 23:30N 37°48' W 122°24'0 0.0
2017-May-20 23:00N 37°48' W 122°24'0 0.0
2017-May-20 22:30N 37°48' W 122°24'0 0.0
2017-May-20 22:00N 37°48' W 122°24'0 0.0
2017-May-20 21:29N 37°48' W 122°24'0 0.0
2017-May-20 20:59N 37°48' W 122°24'0 0.0
2017-May-20 20:29N 37°48' W 122°24'0 0.0
2017-May-20 19:59N 37°48' W 122°24'0 0.0
2017-May-20 19:28N 37°48' W 122°24'0 0.0
2017-May-20 18:58N 37°48' W 122°24'0 0.0
2017-May-20 18:28N 37°48' W 122°24'0 0.6
2017-May-20 18:00N 37°48' W 122°24'010.4 260 / 61011.0 25.0 22.0
2017-May-20 17:58N 37°48' W 122°24'0 0.0
2017-May-20 17:28N 37°48' W 122°24'0 0.0
2017-May-20 17:00N 37°48' W 122°24'0 0.0
2017-May-20 16:30N 37°48' W 122°24'0 0.0
2017-May-20 16:00N 37°48' W 122°24'0 0.0
2017-May-20 15:30N 37°48' W 122°24'0 0.0
2017-May-20 15:00N 37°48' W 122°24'0 0.0
2017-May-20 14:29N 37°48' W 122°24'0 0.3
2017-May-20 13:30N 37°49' W 122°24'2 3.9
2017-May-20 13:00N 37°49' W 122°26'510.6
2017-May-20 12:30N 37°47' W 122°33'612.3
2017-May-20 12:00N 37°45' W 122°40'5 9.8
2017-May-20 11:30N 37°42' W 122°45'5 9.6
2017-May-20 11:00N 37°39' W 122°50'5 9.8
2017-May-20 10:30N 37°37' W 122°55'5 9.7
2017-May-20 10:01N 37°34' W 123°00'6365.7
2017-May-20 10:00N 37°30' W 122°54'918.4 270 / 121015.0 5.4 16.016.017.0
2017-May-20 09:30N 37°31' W 123°05'510.0
2017-May-20 09:00N 37°27' W 123°09'4302.8
2017-May-20 09:00N 37°24' W 123°06'3 6.1 280 / 121015.0 5.4 17.017.017.0
2017-May-20 08:30N 37°23' W 123°09'4 8.9
2017-May-20 08:00N 37°18' W 123°09'510.3
2017-May-20 07:30N 37°13' W 123°09'611.1
2017-May-20 07:00N 37°07' W 123°09'511.0
2017-May-20 06:30N 37°03' W 123°05'611.2
2017-May-20 06:00N 36°59' W 122°60'5301.0
2017-May-20 06:00N 36°54' W 123°00'4 8.2 320 / 191012.0 25.0 22.0
2017-May-20 05:30N 36°55' W 122°55'611.5
2017-May-20 05:00N 36°50' W 122°50'611.5
2017-May-20 04:30N 36°47' W 122°44'611.4
2017-May-20 04:00N 36°44' W 122°38'510.9
2017-May-20 03:30N 36°41' W 122°32'611.3
2017-May-20 03:00N 36°41' W 122°25'611.3
2017-May-20 02:30N 36°41' W 122°18'611.2
2017-May-20 02:00N 36°40' W 122°11'611.5
2017-May-20 01:30N 36°40' W 122°04'611.7
2017-May-20 01:00N 36°40' W 121°57'4 8.6
2017-May-20 00:30N 36°37' W 121°53'0 0.2
2017-May-19 23:55N 36°37' W 121°53'0 0.1
2017-May-19 23:16N 36°37' W 121°53'0 0.0
2017-May-19 22:58N 36°37' W 121°53'0 0.0
2017-May-19 22:28N 36°37' W 121°53'0 0.0
2017-May-19 21:58N 36°37' W 121°53'0 0.0
2017-May-19 21:30N 36°37' W 121°53'4 8.0
2017-May-19 21:00N 36°36' W 121°48'4107.7 270 / 201016.0 5.4 18.018.017.0
2017-May-19 20:57N 36°37' W 121°53'0 0.1
2017-May-19 20:27N 36°37' W 121°53'0 0.1
2017-May-19 20:00N 36°37' W 121°53'0 0.1
2017-May-19 19:17N 36°37' W 121°53'0 0.1
2017-May-19 18:59N 36°37' W 121°53'0 0.0
2017-May-19 18:29N 36°37' W 121°53'0 0.0
2017-May-19 17:56N 36°37' W 121°53'0 0.1
2017-May-19 17:29N 36°37' W 121°53'0 0.0
2017-May-19 16:55N 36°37' W 121°53'0 0.0
2017-May-19 16:25N 36°37' W 121°53'0 0.0
2017-May-19 15:46N 36°37' W 121°53'0 0.0
2017-May-19 15:22N 36°37' W 121°53'0 0.0
2017-May-19 14:55N 36°37' W 121°53'0 0.2
2017-May-19 14:00N 36°37' W 121°53'4 8.1
2017-May-19 13:30N 36°40' W 121°57'713.6
2017-May-19 13:00N 36°35' W 122°03'816.0
2017-May-19 12:30N 36°27' W 122°02'816.2
2017-May-19 12:00N 36°19' W 122°02'815.9
2017-May-19 11:30N 36°11' W 122°02'816.0
2017-May-19 11:00N 36°03' W 122°01'9600.6
2017-May-19 11:00N 35°54' W 122°00'2 4.0 300 / 231014.0 5.4 17.017.017.0
2017-May-19 10:30N 35°55' W 121°58'815.2
2017-May-19 10:00N 35°49' W 121°54'8555.7
2017-May-19 10:00N 35°42' W 121°48'1 1.4 300 / 221015.0 5.4 16.016.015.0
2017-May-19 09:30N 35°42' W 121°49'815.8
2017-May-19 09:00N 35°35' W 121°44'816.5
2017-May-19 08:30N 35°28' W 121°39'815.6
2017-May-19 08:00N 35°22' W 121°34'816.1
2017-May-19 07:30N 35°15' W 121°29'815.5
2017-May-19 07:00N 35°08' W 121°24'9608.4
2017-May-19 07:00N 35°00' W 121°18'1 2.8 240 / 241008.0 25.0 22.0
2017-May-19 06:30N 35°01' W 121°19'816.0
2017-May-19 06:00N 34°54' W 121°14'815.9
2017-May-19 05:30N 34°48' W 121°08'815.9
2017-May-19 05:00N 34°41' W 121°03'816.0
2017-May-19 04:30N 34°34' W 120°58'816.3
2017-May-19 04:00N 34°27' W 120°53'815.6
2017-May-19 03:30N 34°24' W 120°44'816.1
2017-May-19 03:00N 34°22' W 120°35'816.2
2017-May-19 02:30N 34°20' W 120°25'816.3
2017-May-19 01:59N 34°18' W 120°15'714.9
2017-May-19 01:30N 34°19' W 120°06'815.9
2017-May-19 01:00N 34°20' W 119°57'816.2
2017-May-19 00:31N 34°22' W 119°47'611.0
2017-May-19 00:00N 34°24' W 119°41'0 0.3
2017-May-18 23:30N 34°24' W 119°41'0 0.0
2017-May-18 22:57N 34°24' W 119°41'0 0.0
2017-May-18 20:59N 34°24' W 119°41'7 2.4
2017-May-18 18:00N 34°18' W 119°36'714.6 230 / 91009.0 24.0 22.0
2017-May-18 17:30N 34°24' W 119°41'0 0.0
2017-May-18 13:59N 34°24' W 119°41'0 0.2
2017-May-18 13:30N 34°24' W 119°41'1 1.1
2017-May-18 13:00N 34°23' W 119°41'611.3
2017-May-18 12:30N 34°18' W 119°39'713.4
2017-May-18 11:59N 34°12' W 119°34'714.2
2017-May-18 11:30N 34°08' W 119°27'914.4
2017-May-18 10:51N 34°05' W 119°17'714.3
2017-May-18 10:20N 34°01' W 119°09'3 7.9
2017-May-18 10:00N 34°00' W 119°06'341.4 090 / 131011.0 5.4 17.017.017.0
2017-May-18 09:55N 33°58' W 119°02'614.2
2017-May-18 09:30N 33°55' W 118°56'1427.8
2017-May-18 09:00N 33°48' W 118°42'7777.3 050 / 81013.0 5.4 17.017.019.0
2017-May-18 08:59N 33°52' W 118°49'714.7
2017-May-18 08:30N 33°48' W 118°41'714.4
2017-May-18 08:00N 33°45' W 118°34'714.4
2017-May-18 07:30N 33°41' W 118°26'713.1
2017-May-18 07:00N 33°38' W 118°19'611.9
2017-May-18 06:30N 33°38' W 118°12'611.8
2017-May-18 06:00N 33°33' W 118°09'815.1
2017-May-18 05:30N 33°26' W 118°06'815.3
2017-May-18 05:00N 33°19' W 118°02'815.6
2017-May-18 04:30N 33°13' W 117°57'815.2
2017-May-18 04:00N 33°06' W 117°51'814.9
2017-May-18 03:30N 33°00' W 117°46'815.1
2017-May-18 03:00N 32°54' W 117°42'714.9
2017-May-18 02:30N 32°48' W 117°37'714.7
2017-May-18 02:01N 32°42' W 117°31'714.7
2017-May-18 01:31N 32°39' W 117°23'714.7
2017-May-18 01:01N 32°37' W 117°14'611.6
2017-May-18 00:30N 32°43' W 117°13'3 5.2
2017-May-18 00:00N 32°43' W 117°10'0 0.0
2017-May-17 23:24N 32°43' W 117°10'0 0.0
2017-May-17 22:54N 32°43' W 117°10'0 0.0
2017-May-17 22:27N 32°43' W 117°10'0 0.0
2017-May-17 22:00N 32°43' W 117°10'0 0.0
2017-May-17 21:24N 32°43' W 117°10'0 0.0
2017-May-17 20:50N 32°43' W 117°10'0 0.0
2017-May-17 20:14N 32°43' W 117°10'0 0.0
2017-May-17 19:59N 32°43' W 117°10'0 0.0
2017-May-17 19:26N 32°43' W 117°10'4 8.9
2017-May-17 19:00N 32°42' W 117°06'4245.8 270 / 81011.0 27.0 24.0
2017-May-17 18:59N 32°43' W 117°10'0 0.0
2017-May-17 18:25N 32°43' W 117°10'0 0.0
2017-May-17 17:55N 32°43' W 117°10'0 0.0
2017-May-17 17:07N 32°43' W 117°10'0 0.0
2017-May-17 16:55N 32°43' W 117°10'0 0.0
2017-May-17 16:12N 32°43' W 117°10'0 0.0
2017-May-17 15:42N 32°43' W 117°10'0 0.0
2017-May-17 15:30N 32°43' W 117°10'0 0.0
2017-May-17 15:00N 32°43' W 117°10'0 0.0
2017-May-17 14:30N 32°43' W 117°10'0 0.0
2017-May-17 13:23N 32°43' W 117°10'0 0.1
2017-May-17 13:01N 32°43' W 117°10'3 5.7
2017-May-17 12:30N 32°42' W 117°14'510.1
2017-May-17 12:00N 32°37' W 117°14'510.8
2017-May-17 11:31N 32°32' W 117°17'1121.2
2017-May-17 11:00N 32°23' W 117°22'1020.6
2017-May-17 10:30N 32°13' W 117°18'1427.2
2017-May-17 10:00N 32°00' W 117°12'3215.8 270 / 91015.0 5.4 26.026.018.0
2017-May-17 08:00N 31°30' W 117°00'3737.4 300 / 201016.0 5.4 17.017.016.0
2017-May-17 07:00N 30°54' W 116°48'8817.6 330 / 241014.0 25.0 22.0
2017-May-17 02:00N 29°30' W 116°18'6421.2 290 / 301018.027.0 20.0 18.0
2017-May-16 23:00N 28°30' W 115°54'3818.8 300 / 251017.0 5.4 18.018.017.0
2017-May-16 21:00N 27°54' W 115°42'7218.0 300 / 281019.0 5.4 18.018.018.0
2017-May-16 17:00N 27°00' W 114°48'6120.3 310 / 201019.0 5.4 26.026.023.0
2017-May-16 14:00N 26°12' W 114°06'4020.2 290 / 251016.027.0 27.0 23.0
2017-May-16 12:00N 25°42' W 113°36'4020.2 290 / 221016.027.0 26.0 23.0
2017-May-16 10:00N 25°12' W 113°06'7719.2 300 / 301016.0 5.4 26.026.024.0
2017-May-16 06:00N 24°18' W 112°06'8617.2 310 / 221012.0 26.0 23.0
2017-May-16 01:00N 23°30' W 110°48'4522.3 280 / 221014.027.0 27.0 23.0
2017-May-15 23:00N 23°00' W 110°12'76 5.4 280 / 201014.027.0 27.0 23.0
2017-May-15 09:00N 22°24' W 109°00'5417.9 260 / 231009.0 5.4 27.027.026.0
2017-May-15 06:00N 21°54' W 108°12'2525.3 270 / 231016.0 5.4 23.023.025.0
2017-May-15 05:00N 21°42' W 107°48'   260 / 171009.0 26.0 25.0

Dump ship's entire track history